Terminal Aerodrome Forecast
Issued by NWS

Home | Current Version | Previous Version | Text Only | Print | Product List | Glossary On
Versions: 1 2 3 4 5 6 7 8 9 10 11 12
000
FTUS45 KBOI 290524
TAFBKE
TAF
KBKE 290524Z 2906/3006 VRB03KT P6SM SCT250
     FM292100 31012KT P6SM SCT050 SCT250
     FM300000 32015G25KT P6SM SCT050 SCT250
     FM300500 32011KT P6SM SCT035=

USA.gov is the U.S. government's official web portal to all federal, state and local government web resources and services.